地図

経路データ

SID SEASON NUMBER BASIN SUBBASIN NAME ISO_TIME NATURE LAT LON WMO_WIND WMO_PRES WMO_AGENCY TRACK_TYPE DIST2LAND LANDFALL IFLAG USA_AGENCY USA_ATCF_ID USA_LAT USA_LON USA_RECORD USA_STATUS USA_WIND USA_PRES USA_SSHS USA_R34_NE USA_R34_SE USA_R34_SW USA_R34_NW USA_R50_NE USA_R50_SE USA_R50_SW USA_R50_NW USA_R64_NE USA_R64_SE USA_R64_SW USA_R64_NW USA_POCI USA_ROCI USA_RMW USA_EYE TOKYO_LAT TOKYO_LON TOKYO_GRADE TOKYO_WIND TOKYO_PRES TOKYO_R50_DIR TOKYO_R50_LONG TOKYO_R50_SHORT TOKYO_R30_DIR TOKYO_R30_LONG TOKYO_R30_SHORT TOKYO_LAND CMA_LAT CMA_LON CMA_CAT CMA_WIND CMA_PRES HKO_LAT HKO_LON HKO_CAT HKO_WIND HKO_PRES NEWDELHI_LAT NEWDELHI_LON NEWDELHI_GRADE NEWDELHI_WIND NEWDELHI_PRES NEWDELHI_CI NEWDELHI_DP NEWDELHI_POCI REUNION_LAT REUNION_LON REUNION_TYPE REUNION_WIND REUNION_PRES REUNION_TNUM REUNION_CI REUNION_RMW REUNION_R34_NE REUNION_R34_SE REUNION_R34_SW REUNION_R34_NW REUNION_R50_NE REUNION_R50_SE REUNION_R50_SW REUNION_R50_NW REUNION_R64_NE REUNION_R64_SE REUNION_R64_SW REUNION_R64_NW BOM_LAT BOM_LON BOM_TYPE BOM_WIND BOM_PRES BOM_TNUM BOM_CI BOM_RMW BOM_R34_NE BOM_R34_SE BOM_R34_SW BOM_R34_NW BOM_R50_NE BOM_R50_SE BOM_R50_SW BOM_R50_NW BOM_R64_NE BOM_R64_SE BOM_R64_SW BOM_R64_NW BOM_ROCI BOM_POCI BOM_EYE BOM_POS_METHOD BOM_PRES_METHOD NADI_LAT NADI_LON NADI_CAT NADI_WIND NADI_PRES WELLINGTON_LAT WELLINGTON_LON WELLINGTON_WIND WELLINGTON_PRES DS824_LAT DS824_LON DS824_STAGE DS824_WIND DS824_PRES TD9636_LAT TD9636_LON TD9636_STAGE TD9636_WIND TD9636_PRES TD9635_LAT TD9635_LON TD9635_WIND TD9635_PRES TD9635_ROCI NEUMANN_LAT NEUMANN_LON NEUMANN_CLASS NEUMANN_WIND NEUMANN_PRES MLC_LAT MLC_LON MLC_CLASS MLC_WIND MLC_PRES USA_GUST BOM_GUST BOM_GUST_PER REUNION_GUST REUNION_GUST_PER USA_SEAHGT USA_SEARAD_NE USA_SEARAD_SE USA_SEARAD_SW USA_SEARAD_NW STORM_SPEED STORM_DIR
1935307N34299 1935 66 NA NA NOT_NAMED 1935-11-03 00:00:00 TS 34.0000 -61.5000 30 hurdat_atl main 1107 1093 O_____________ hurdat_atl AL081935 34.0000 -61.5000 TD 30 -1 10 59
1935307N34299 1935 66 NA NA NOT_NAMED 1935-11-03 03:00:00 TS 34.2530 -60.9957 main 1088 1080 P_____________ AL081935 34.2530 -60.9957 TD 30 -1 10 59
1935307N34299 1935 66 NA NA NOT_NAMED 1935-11-03 06:00:00 TS 34.5000 -60.5000 30 hurdat_atl main 1083 1072 O_____________ hurdat_atl AL081935 34.5000 -60.5000 TD 30 -1 9 59
1935307N34299 1935 66 NA NA NOT_NAMED 1935-11-03 09:00:00 TS 34.7421 -60.0144 main 1079 1064 P_____________ AL081935 34.7421 -60.0144 TD 30 -1 10 59
1935307N34299 1935 66 NA NA NOT_NAMED 1935-11-03 12:00:00 TS 35.0000 -59.5000 30 hurdat_atl main 1068 1059 O_____________ hurdat_atl AL081935 35.0000 -59.5000 TD 30 -1 11 59
1935307N34299 1935 66 NA NA NOT_NAMED 1935-11-03 15:00:00 TS 35.2924 -58.9149 main 1063 1057 P_____________ AL081935 35.2924 -58.9149 TD 32 -1 11 59
1935307N34299 1935 66 NA NA NOT_NAMED 1935-11-03 18:00:00 TS 35.6000 -58.3000 35 hurdat_atl main 1062 1058 O_____________ hurdat_atl AL081935 35.6000 -58.3000 TS 35 0 12 58
1935307N34299 1935 66 NA NA NOT_NAMED 1935-11-03 21:00:00 TS 35.9073 -57.6923 main 1064 1053 P_____________ AL081935 35.9073 -57.6923 TS 35 0 11 58
1935307N34299 1935 66 NA NA NOT_NAMED 1935-11-04 00:00:00 TS 36.2000 -57.1000 35 hurdat_atl main 1055 1038 O_____________ hurdat_atl AL081935 36.2000 -57.1000 TS 35 0 11 59
1935307N34299 1935 66 NA NA NOT_NAMED 1935-11-04 03:00:00 TS 36.4722 -56.5348 main 1041 1033 P_____________ AL081935 36.4722 -56.5348 TS 37 0 10 61
1935307N34299 1935 66 NA NA NOT_NAMED 1935-11-04 06:00:00 TS 36.7000 -56.0000 40 hurdat_atl main 1037 1030 O_____________ hurdat_atl AL081935 36.7000 -56.0000 TS 40 0 10 63
1935307N34299 1935 66 NA NA NOT_NAMED 1935-11-04 09:00:00 TS 36.9100 -55.4628 main 1034 1032 P_____________ AL081935 36.9100 -55.4628 TS 40 0 9 69
1935307N34299 1935 66 NA NA NOT_NAMED 1935-11-04 12:00:00 TS 37.0000 -55.0000 40 hurdat_atl main 1044 1044 O_____________ hurdat_atl AL081935 37.0000 -55.0000 TS 40 0 7 90
1935307N34299 1935 66 NA NA NOT_NAMED 1935-11-04 15:00:00 TS 36.9098 -54.6470 main 1070 1070 P_____________ AL081935 36.9098 -54.6470 TS 40 0 6 122
1935307N34299 1935 66 NA NA NOT_NAMED 1935-11-04 18:00:00 TS 36.7000 -54.4000 40 hurdat_atl main 1098 1098 O_____________ hurdat_atl AL081935 36.7000 -54.4000 TS 40 0 6 142
1935307N34299 1935 66 NA NA NOT_NAMED 1935-11-04 21:00:00 TS 36.4724 -54.2201 main 1124 1124 P_____________ AL081935 36.4724 -54.2201 TS 40 0 6 154
1935307N34299 1935 66 NA NA NOT_NAMED 1935-11-05 00:00:00 TS 36.2000 -54.1000 40 hurdat_atl main 1157 1157 O_____________ hurdat_atl AL081935 36.2000 -54.1000 TS 40 0 6 160
1935307N34299 1935 66 NA NA NOT_NAMED 1935-11-05 03:00:00 TS 35.9075 -53.9699 main 1190 1190 P_____________ AL081935 35.9075 -53.9699 TS 40 0 6 165
1935307N34299 1935 66 NA NA NOT_NAMED 1935-11-05 06:00:00 TS 35.6000 -53.9000 40 hurdat_atl main 1224 1224 O_____________ hurdat_atl AL081935 35.6000 -53.9000 TS 40 0 6 173
1935307N34299 1935 66 NA NA NOT_NAMED 1935-11-05 09:00:00 TS 35.3147 -53.8745 main 1257 1257 P_____________ AL081935 35.3147 -53.8745 TS 40 0 6 188
1935307N34299 1935 66 NA NA NOT_NAMED 1935-11-05 12:00:00 TS 35.0000 -54.0000 40 hurdat_atl main 1283 1283 O_____________ hurdat_atl AL081935 35.0000 -54.0000 TS 40 0 8 209
1935307N34299 1935 66 NA NA NOT_NAMED 1935-11-05 15:00:00 TS 34.6300 -54.3325 main 1312 1308 P_____________ AL081935 34.6300 -54.3325 TS 40 0 10 219
1935307N34299 1935 66 NA NA NOT_NAMED 1935-11-05 18:00:00 TS 34.2000 -54.8000 40 hurdat_atl main 1335 1335 O_____________ hurdat_atl AL081935 34.2000 -54.8000 TS 40 0 12 220
1935307N34299 1935 66 NA NA NOT_NAMED 1935-11-05 21:00:00 TS 33.6923 -55.2701 main 1372 1372 P_____________ AL081935 33.6923 -55.2701 TS 40 0 13 220
1935307N34299 1935 66 NA NA NOT_NAMED 1935-11-06 00:00:00 TS 33.2000 -55.8000 40 hurdat_atl main 1410 1406 O_____________ hurdat_atl AL081935 33.2000 -55.8000 TS 40 0 13 227
1935307N34299 1935 66 NA NA NOT_NAMED 1935-11-06 03:00:00 TS 32.8126 -56.3997 main 1419 1415 P_____________ AL081935 32.8126 -56.3997 TS 40 0 12 235
1935307N34299 1935 66 NA NA NOT_NAMED 1935-11-06 06:00:00 TS 32.5000 -57.0000 40 hurdat_atl main 1421 1417 O_____________ hurdat_atl AL081935 32.5000 -57.0000 TS 40 0 11 238
1935307N34299 1935 66 NA NA NOT_NAMED 1935-11-06 09:00:00 TS 32.2198 -57.5296 main 1430 1421 P_____________ AL081935 32.2198 -57.5296 TS 40 0 10 239
1935307N34299 1935 66 NA NA NOT_NAMED 1935-11-06 12:00:00 TS 32.0000 -58.0000 40 hurdat_atl main 1430 1426 O_____________ hurdat_atl AL081935 32.0000 -58.0000 TS 40 0 9 241
1935307N34299 1935 66 NA NA NOT_NAMED 1935-11-06 15:00:00 TS 31.8122 -58.4148 main 1435 1428 P_____________ AL081935 31.8122 -58.4148 TS 40 0 7 246
1935307N34299 1935 66 NA NA NOT_NAMED 1935-11-06 18:00:00 TS 31.7000 -58.8000 40 hurdat_atl main 1431 1418 O_____________ hurdat_atl AL081935 31.7000 -58.8000 TS 40 0 7 259
1935307N34299 1935 66 NA NA NOT_NAMED 1935-11-06 21:00:00 TS 31.6774 -59.2072 main 1418 1405 P_____________ AL081935 31.6774 -59.2072 TS 40 0 7 270
1935307N34299 1935 66 NA NA NOT_NAMED 1935-11-07 00:00:00 TS 31.7000 -59.6000 40 hurdat_atl main 1405 1396 O_____________ hurdat_atl AL081935 31.7000 -59.6000 TS 40 0 6 273
1935307N34299 1935 66 NA NA NOT_NAMED 1935-11-07 03:00:00 TS 31.7148 -59.9573 main 1393 1384 P_____________ AL081935 31.7148 -59.9573 TS 40 0 6 270
1935307N34299 1935 66 NA NA NOT_NAMED 1935-11-07 06:00:00 TS 31.7000 -60.3000 40 hurdat_atl main 1384 1376 O_____________ hurdat_atl AL081935 31.7000 -60.3000 TS 40 0 6 263
1935307N34299 1935 66 NA NA NOT_NAMED 1935-11-07 09:00:00 TS 31.6450 -60.6573 main 1385 1380 P_____________ AL081935 31.6450 -60.6573 TS 40 0 6 251
1935307N34299 1935 66 NA NA NOT_NAMED 1935-11-07 12:00:00 TS 31.5000 -61.0000 40 hurdat_atl main 1388 1383 O_____________ hurdat_atl AL081935 31.5000 -61.0000 TS 40 0 7 236
1935307N34299 1935 66 NA NA NOT_NAMED 1935-11-07 15:00:00 TS 31.2599 -61.3149 main 1392 1392 P_____________ AL081935 31.2599 -61.3149 TS 40 0 8 221
1935307N34299 1935 66 NA NA NOT_NAMED 1935-11-07 18:00:00 TS 30.9000 -61.6000 40 hurdat_atl main 1397 1393 O_____________ hurdat_atl AL081935 30.9000 -61.6000 TS 40 0 10 210
1935307N34299 1935 66 NA NA NOT_NAMED 1935-11-07 21:00:00 TS 30.4225 -61.8727 main 1391 1332 P_____________ AL081935 30.4225 -61.8727 TS 40 0 11 203
1935307N34299 1935 66 NA NA NOT_NAMED 1935-11-08 00:00:00 TS 29.9000 -62.1000 40 hurdat_atl main 1332 1273 O_____________ hurdat_atl AL081935 29.9000 -62.1000 TS 40 0 11 199
1935307N34299 1935 66 NA NA NOT_NAMED 1935-11-08 03:00:00 TS 29.4125 -62.2799 main 1273 1228 P_____________ AL081935 29.4125 -62.2799 TS 40 0 9 196
1935307N34299 1935 66 NA NA NOT_NAMED 1935-11-08 06:00:00 TS 29.0000 -62.4000 40 hurdat_atl main 1228 1193 O_____________ hurdat_atl AL081935 29.0000 -62.4000 TS 40 0 7 194
1935307N34299 1935 66 NA NA NOT_NAMED 1935-11-08 09:00:00 TS 28.7050 -62.4799 main 1193 1172 P_____________ AL081935 28.7050 -62.4799 TS 40 0 5 190
1935307N34299 1935 66 NA NA NOT_NAMED 1935-11-08 12:00:00 TS 28.5000 -62.5000 40 hurdat_atl main 1172 1150 O_____________ hurdat_atl AL081935 28.5000 -62.5000 TS 40 0 4 177
1935307N34299 1935 66 NA NA NOT_NAMED 1935-11-08 15:00:00 TS 28.3200 -62.4724 main 1150 1142 P_____________ AL081935 28.3200 -62.4724 TS 37 0 3 164
1935307N34299 1935 66 NA NA NOT_NAMED 1935-11-08 18:00:00 TS 28.2000 -62.4000 35 hurdat_atl main 1142 1135 O_____________ hurdat_atl AL081935 28.2000 -62.4000 TS 35 0 2 143
1935307N34299 1935 66 NA NA NOT_NAMED 1935-11-08 21:00:00 TS 28.1350 -62.3150 main 1135 1135 P_____________ AL081935 28.1350 -62.3150 TS 35 0 2 120
1935307N34299 1935 66 NA NA NOT_NAMED 1935-11-09 00:00:00 TS 28.1000 -62.2000 35 hurdat_atl main 1138 1130 O_____________ hurdat_atl AL081935 28.1000 -62.2000 TS 35 0 2 113
1935307N34299 1935 66 NA NA NOT_NAMED 1935-11-09 03:00:00 TS 28.0425 -62.0650 main 1130 1130 P_____________ AL081935 28.0425 -62.0650 TS 32 -1 3 111
1935307N34299 1935 66 NA NA NOT_NAMED 1935-11-09 06:00:00 TS 28.0000 -61.9000 30 hurdat_atl main 1137 1137 O_____________ hurdat_atl AL081935 28.0000 -61.9000 TD 30 -1 3 99
1935307N34299 1935 66 NA NA NOT_NAMED 1935-11-09 09:00:00 TS 27.9924 -61.7225 main 1144 1144 P_____________ AL081935 27.9924 -61.7225 TD 30 -1 4 90
1935307N34299 1935 66 NA NA NOT_NAMED 1935-11-09 12:00:00 TS 28.0000 -61.5000 30 hurdat_atl main 1151 1151 O_____________ hurdat_atl AL081935 28.0000 -61.5000 TD 30 -1 4 90
1935307N34299 1935 66 NA NA NOT_NAMED 1935-11-09 15:00:00 TS 27.9923 -61.2374 main 1163 1163 P_____________ AL081935 27.9923 -61.2374 TD 30 -1 5 90
1935307N34299 1935 66 NA NA NOT_NAMED 1935-11-09 18:00:00 TS 28.0000 -60.9000 30 hurdat_atl main 1175 1175 O_____________ hurdat_atl AL081935 28.0000 -60.9000 TD 30 -1 7 86
1935307N34299 1935 66 NA NA NOT_NAMED 1935-11-09 21:00:00 TS 28.0427 -60.4576 main 1192 1192 P_____________ AL081935 28.0427 -60.4576 TD 30 -1 8 83
1935307N34299 1935 66 NA NA NOT_NAMED 1935-11-10 00:00:00 TS 28.1000 -60.0000 30 hurdat_atl main 1225 1225 O_____________ hurdat_atl AL081935 28.1000 -60.0000 TD 30 -1 8 83
1935307N34299 1935 66 NA NA NOT_NAMED 1935-11-10 03:00:00 TS 28.1350 -59.6049 main 1244 1244 P_____________ AL081935 28.1350 -59.6049 TD 30 -1 6 81
1935307N34299 1935 66 NA NA NOT_NAMED 1935-11-10 06:00:00 TS 28.2000 -59.3000 30 hurdat_atl main 1269 1269 O_____________ hurdat_atl AL081935 28.2000 -59.3000 TD 30 -1 5 68
1935307N34299 1935 66 NA NA NOT_NAMED 1935-11-10 09:00:00 TS 28.3199 -59.0826 main 1289 1289 P_____________ AL081935 28.3199 -59.0826 TD 32 -1 4 41
1935307N34299 1935 66 NA NA NOT_NAMED 1935-11-10 12:00:00 TS 28.5000 -59.0000 35 hurdat_atl main 1313 1313 O_____________ hurdat_atl AL081935 28.5000 -59.0000 TS 35 0 4 5
1935307N34299 1935 66 NA NA NOT_NAMED 1935-11-10 15:00:00 TS 28.7349 -59.0400 main 1332 1332 P_____________ AL081935 28.7349 -59.0400 TS 35 0 5 340
1935307N34299 1935 66 NA NA NOT_NAMED 1935-11-10 18:00:00 TS 29.0000 -59.2000 35 hurdat_atl main 1351 1351 O_____________ hurdat_atl AL081935 29.0000 -59.2000 TS 35 0 6 329
1935307N34299 1935 66 NA NA NOT_NAMED 1935-11-10 21:00:00 TS 29.2574 -59.4051 main 1370 1366 P_____________ AL081935 29.2574 -59.4051 TS 37 0 7 319
1935307N34299 1935 66 NA NA NOT_NAMED 1935-11-11 00:00:00 TS 29.5000 -59.7000 40 hurdat_atl main 1376 1372 O_____________ hurdat_atl AL081935 29.5000 -59.7000 TS 40 0 7 310
1935307N34299 1935 66 NA NA NOT_NAMED 1935-11-11 03:00:00 TS 29.7299 -60.0624 main 1380 1380 P_____________ AL081935 29.7299 -60.0624 TS 40 0 8 300
1935307N34299 1935 66 NA NA NOT_NAMED 1935-11-11 06:00:00 TS 29.9000 -60.5000 40 hurdat_atl main 1384 1377 O_____________ hurdat_atl AL081935 29.9000 -60.5000 TS 40 0 9 289
1935307N34299 1935 66 NA NA NOT_NAMED 1935-11-11 09:00:00 TS 30.0102 -61.0073 main 1377 1360 P_____________ AL081935 30.0102 -61.0073 TS 40 0 9 277
1935307N34299 1935 66 NA NA NOT_NAMED 1935-11-11 12:00:00 TS 30.0000 -61.5000 40 hurdat_atl main 1360 1338 O_____________ hurdat_atl AL081935 30.0000 -61.5000 TS 40 0 8 260
1935307N34299 1935 66 NA NA NOT_NAMED 1935-11-11 15:00:00 TS 29.8748 -61.8951 main 1338 1298 P_____________ AL081935 29.8748 -61.8951 TS 40 0 7 237
1935307N34299 1935 66 NA NA NOT_NAMED 1935-11-11 18:00:00 TS 29.6000 -62.2000 40 hurdat_atl main 1298 1249 O_____________ hurdat_atl AL081935 29.6000 -62.2000 TS 40 0 8 214
1935307N34299 1935 66 NA NA NOT_NAMED 1935-11-11 21:00:00 TS 29.1799 -62.4376 main 1249 1190 P_____________ AL081935 29.1799 -62.4376 TS 40 0 10 201
1935307N34299 1935 66 NA NA NOT_NAMED 1935-11-12 00:00:00 TS 28.7000 -62.6000 40 hurdat_atl main 1190 1145 O_____________ hurdat_atl AL081935 28.7000 -62.6000 TS 40 0 10 195
1935307N34299 1935 66 NA NA NOT_NAMED 1935-11-12 03:00:00 TS 28.2625 -62.7148 main 1145 1099 P_____________ AL081935 28.2625 -62.7148 TS 40 0 8 193
1935307N34299 1935 66 NA NA NOT_NAMED 1935-11-12 06:00:00 TS 27.9000 -62.8000 40 hurdat_atl main 1099 1075 O_____________ hurdat_atl AL081935 27.9000 -62.8000 TS 40 0 6 195
1935307N34299 1935 66 NA NA NOT_NAMED 1935-11-12 09:00:00 TS 27.6625 -62.8999 main 1075 1051 P_____________ AL081935 27.6625 -62.8999 TS 37 0 4 204
1935307N34299 1935 66 NA NA NOT_NAMED 1935-11-12 12:00:00 TS 27.5000 -63.0000 35 hurdat_atl main 1051 1027 O_____________ hurdat_atl AL081935 27.5000 -63.0000 TS 35 0 4 209
1935307N34299 1935 66 NA NA NOT_NAMED 1935-11-12 15:00:00 TS 27.3350 -63.1000 main 1027 1013 P_____________ AL081935 27.3350 -63.1000 TS 35 0 3 210
1935307N34299 1935 66 NA NA NOT_NAMED 1935-11-12 18:00:00 TS 27.2000 -63.2000 35 hurdat_atl main 1013 1000 O_____________ hurdat_atl AL081935 27.2000 -63.2000 TS 35 0 3 215
1935307N34299 1935 66 NA NA NOT_NAMED 1935-11-12 21:00:00 TS 27.0850 -63.3000 main 1000 987 P_____________ AL081935 27.0850 -63.3000 TS 35 0 3 222
1935307N34299 1935 66 NA NA NOT_NAMED 1935-11-13 00:00:00 TS 27.0000 -63.4000 35 hurdat_atl main 987 974 O_____________ hurdat_atl AL081935 27.0000 -63.4000 TS 35 0 3 232
1935307N34299 1935 66 NA NA NOT_NAMED 1935-11-13 03:00:00 TS 26.9275 -63.5225 main 974 972 P_____________ AL081935 26.9275 -63.5225 TS 32 -1 2 240
1935307N34299 1935 66 NA NA NOT_NAMED 1935-11-13 06:00:00 TS 26.9000 -63.6000 30 hurdat_atl main 972 972 O_____________ hurdat_atl AL081935 26.9000 -63.6000 TD 30 -1 1 251
1935307N34299 1935 66 NA NA NOT_NAMED 1935-11-13 09:00:00 TS 26.9049 -63.5948 main 972 972 P_____________ AL081935 26.9049 -63.5948 TD 30 -1 1 40
1935307N34299 1935 66 NA NA NOT_NAMED 1935-11-13 12:00:00 TS 27.0000 -63.5000 30 hurdat_atl main 985 985 O_____________ hurdat_atl AL081935 27.0000 -63.5000 TD 30 -1 4 40
1935307N34299 1935 66 NA NA NOT_NAMED 1935-11-13 15:00:00 TS 27.1825 -63.3372 main 1011 1011 P_____________ AL081935 27.1825 -63.3372 TD 30 -1 6 36
1935307N34299 1935 66 NA NA NOT_NAMED 1935-11-13 18:00:00 TS 27.5000 -63.1000 30 hurdat_atl main 1048 1048 O_____________ hurdat_atl AL081935 27.5000 -63.1000 TD 30 -1 9 31
1935307N34299 1935 66 NA NA NOT_NAMED 1935-11-13 21:00:00 TS 27.9602 -62.8133 main 1110 1110 P_____________ AL081935 27.9602 -62.8133 TD 27 -1 11 28
1935307N34299 1935 66 NA NA NOT_NAMED 1935-11-14 00:00:00 TS 28.5000 -62.5000 25 hurdat_atl main 1172 O_____________ hurdat_atl AL081935 28.5000 -62.5000 TD 25 -1 12 27

IBTrACS Databaseについて

本データベースは、米国NOAAが公開する1842年以降の世界の熱帯低気圧のベストトラックデータアーカイブInternational Best Track Archive for Climate Stewardship (IBTrACS)を、ウェブで閲覧しやすい形式に変換したものです。

最終更新日:2021-11-26